Time;durP1;ratioP1;P1;durP2;ratioP2;P2;SDS_P1;SDS_P2;PMS_P1;PMS_P2;Temp;Humidity;BMP_temperature;BMP_pressure;BME280_temperature;BME280_humidity;BME280_pressure;Samples;Min_cycle;Max_cycle;Signal;HPM_P1;HPM_P2
2022/09/07 00:00:55;;;;;;;12.85;7.43;;;20.70;99.90;;;;;;5047343;28;20104;-65
2022/09/07 00:03:21;;;;;;;12.25;7.35;;;20.70;99.90;;;;;;5052111;28;20159;-64
2022/09/07 00:05:49;;;;;;;10.50;8.10;;;20.70;99.90;;;;;;5058972;28;20055;-65
2022/09/07 00:08:16;;;;;;;8.50;7.20;;;20.60;99.90;;;;;;5049546;28;20051;-65
2022/09/07 00:10:54;;;;;;;11.80;7.55;;;20.60;99.90;;;;;;5038759;28;20033;-65
2022/09/07 00:13:22;;;;;;;11.18;7.72;;;20.60;99.90;;;;;;5035409;28;20069;-65
2022/09/07 00:15:47;;;;;;;17.00;7.90;;;20.50;99.90;;;;;;5042717;28;20041;-62
2022/09/07 00:18:13;;;;;;;11.82;7.60;;;20.50;99.90;;;;;;5049509;28;20043;-65
2022/09/07 00:20:38;;;;;;;12.02;7.20;;;20.50;99.90;;;;;;5056005;28;20032;-65
2022/09/07 00:23:04;;;;;;;13.10;8.30;;;20.50;99.90;;;;;;5059251;28;20134;-65
2022/09/07 00:25:30;;;;;;;10.65;7.88;;;20.50;99.90;;;;;;5051426;28;20401;-65
2022/09/07 00:27:55;;;;;;;10.93;7.97;;;20.40;99.90;;;;;;5050298;28;20029;-64
2022/09/07 00:30:21;;;;;;;12.75;9.18;;;20.30;99.90;;;;;;5045493;28;20090;-64
2022/09/07 00:32:46;;;;;;;14.45;9.85;;;20.20;99.90;;;;;;5050052;28;20548;-64
2022/09/07 00:35:12;;;;;;;16.17;10.23;;;20.00;99.90;;;;;;5058762;28;20036;-63
2022/09/07 00:37:38;;;;;;;17.20;10.98;;;19.90;99.90;;;;;;5057991;28;20107;-65
2022/09/07 00:40:04;;;;;;;15.57;11.30;;;19.90;99.90;;;;;;5047658;28;20303;-65
2022/09/07 00:42:30;;;;;;;15.77;13.13;;;19.80;99.90;;;;;;5053232;28;20430;-66
2022/09/07 00:45:02;;;;;;;21.08;14.80;;;19.80;99.90;;;;;;5042046;28;20029;-65
2022/09/07 00:47:40;;;;;;;;;;;19.70;99.90;;;;;;5056172;28;20094;-64
2022/09/07 00:50:27;;;;;;;22.95;15.35;;;19.70;99.90;;;;;;5062714;28;19922;-64
2022/09/07 00:53:10;;;;;;;21.92;16.85;;;19.70;99.90;;;;;;5052368;28;20368;-64
2022/09/07 00:55:38;;;;;;;22.27;16.00;;;19.70;99.90;;;;;;5052813;28;20148;-63
2022/09/07 00:58:05;;;;;;;22.90;15.57;;;19.70;99.90;;;;;;5060020;28;20033;-65
2022/09/07 01:00:31;;;;;;;17.90;15.60;;;19.70;99.90;;;;;;5050209;28;20037;-64
2022/09/07 01:02:58;;;;;;;21.00;15.80;;;19.80;99.90;;;;;;5048052;28;20045;-63
2022/09/07 01:05:40;;;;;;;20.40;15.75;;;19.80;99.90;;;;;;5055790;28;20037;-63
2022/09/07 01:08:06;;;;;;;19.48;15.90;;;19.80;99.90;;;;;;5052263;28;20128;-64
2022/09/07 01:10:32;;;;;;;20.42;16.13;;;19.80;99.90;;;;;;5052732;28;20123;-64
2022/09/07 01:12:58;;;;;;;19.52;15.80;;;19.80;99.90;;;;;;5051755;28;20562;-64
2022/09/07 01:15:49;;;;;;;22.15;16.73;;;19.90;99.90;;;;;;5046878;28;20044;-64
2022/09/07 01:18:27;;;;;;;21.00;15.60;;;19.90;99.90;;;;;;5057897;28;20483;-64
2022/09/07 01:21:11;;;;;;;20.52;16.40;;;19.90;99.90;;;;;;5052498;28;20045;-64
2022/09/07 01:23:55;;;;;;;19.23;14.63;;;19.90;99.90;;;;;;5049162;28;20041;-64
2022/09/07 01:26:59;;;;;;;22.13;15.30;;;19.90;99.90;;;;;;5053446;28;20076;-63
2022/09/07 01:29:39;;;;;;;17.48;14.73;;;19.90;99.90;;;;;;5049573;28;20094;-63
2022/09/07 01:32:27;;;;;;;20.75;14.27;;;19.80;99.90;;;;;;5043767;28;20045;-63
2022/09/07 01:34:53;;;;;;;17.52;14.68;;;19.80;99.90;;;;;;5056021;28;20099;-63
2022/09/07 01:37:19;;;;;;;21.40;15.15;;;19.70;99.90;;;;;;5060574;28;20115;-63
2022/09/07 01:39:52;;;;;;;16.30;14.27;;;19.70;99.90;;;;;;5048816;28;20037;-63
2022/09/07 01:42:23;;;;;;;18.00;13.68;;;19.70;99.90;;;;;;5051708;28;20553;-63
2022/09/07 01:45:01;;;;;;;18.58;14.48;;;19.70;99.90;;;;;;5052654;28;20028;-63
2022/09/07 01:47:38;;;;;;;17.27;14.88;;;19.70;99.90;;;;;;5052830;28;20040;-63
2022/09/07 01:50:28;;;;;;;17.13;14.23;;;19.70;99.90;;;;;;5055198;28;20053;-63
2022/09/07 01:53:15;;;;;;;16.73;14.35;;;19.70;99.90;;;;;;5054311;28;20068;-63
2022/09/07 01:56:08;;;;;;;16.60;13.60;;;19.60;99.90;;;;;;5051936;28;20049;-63
2022/09/07 01:58:47;;;;;;;15.80;12.93;;;19.60;99.90;;;;;;5048866;28;20040;-63
2022/09/07 02:01:24;;;;;;;15.85;13.10;;;19.50;99.90;;;;;;5051494;28;20044;-63
2022/09/07 02:03:57;;;;;;;15.82;11.73;;;19.50;99.90;;;;;;5058648;28;20037;-63
2022/09/07 02:06:49;;;;;;;15.93;11.82;;;19.50;99.90;;;;;;5068880;28;20041;-63
2022/09/07 02:09:41;;;;;;;13.07;10.90;;;19.50;99.90;;;;;;5030363;28;20411;-63
2022/09/07 02:12:14;;;;;;;;;;;19.50;99.90;;;;;;5050909;28;20037;-63
2022/09/07 02:14:41;;;;;;;;;;;19.40;99.90;;;;;;5052919;28;20049;-63
2022/09/07 02:17:21;;;;;;;9.93;8.65;;;19.40;99.90;;;;;;5051424;28;19917;-63
2022/09/07 02:19:53;;;;;;;10.88;7.78;;;19.40;99.90;;;;;;5053228;28;20052;-63
2022/09/07 02:22:25;;;;;;;9.32;6.95;;;19.40;99.90;;;;;;5058745;28;20041;-63
2022/09/07 02:24:55;;;;;;;8.60;6.53;;;19.40;99.90;;;;;;5058278;28;20457;-63
2022/09/07 02:27:25;;;;;;;10.23;6.72;;;19.30;99.90;;;;;;5054473;28;20052;-63
2022/09/07 02:29:52;;;;;;;9.48;6.88;;;19.30;99.90;;;;;;5053076;28;20048;-63
2022/09/07 02:32:19;;;;;;;8.13;6.53;;;19.30;99.90;;;;;;5051698;28;20041;-63
2022/09/07 02:34:45;;;;;;;7.88;6.03;;;19.30;99.90;;;;;;5046092;28;20119;-63
2022/09/07 02:37:12;;;;;;;8.80;6.15;;;19.30;99.90;;;;;;5048885;28;20136;-63
2022/09/07 02:39:38;;;;;;;7.78;5.90;;;19.20;99.90;;;;;;5049241;28;20055;-63
2022/09/07 02:42:04;;;;;;;7.15;5.65;;;19.20;99.90;;;;;;5052112;28;20128;-63
2022/09/07 02:44:33;;;;;;;9.25;5.57;;;19.20;99.90;;;;;;5044276;28;20045;-63
2022/09/07 02:47:08;;;;;;;7.25;4.88;;;19.20;99.90;;;;;;5046674;28;20037;-63
2022/09/07 02:50:03;;;;;;;8.52;5.38;;;19.20;99.90;;;;;;5045575;28;20108;-64
2022/09/07 02:52:49;;;;;;;7.60;5.18;;;19.20;99.90;;;;;;5067088;28;20099;-63
2022/09/07 02:55:51;;;;;;;6.15;4.95;;;19.10;99.90;;;;;;5053500;28;20041;-63
2022/09/07 02:58:35;;;;;;;7.50;5.07;;;19.10;99.90;;;;;;5064700;28;20037;-63
2022/09/07 03:01:09;;;;;;;6.32;4.75;;;19.10;99.90;;;;;;5056162;28;20560;-63
2022/09/07 03:03:36;;;;;;;5.70;4.97;;;19.00;99.90;;;;;;5054687;28;20049;-64
2022/09/07 03:06:07;;;;;;;6.18;4.63;;;19.00;99.90;;;;;;5049462;28;20488;-63
2022/09/07 03:08:43;;;;;;;6.40;4.47;;;19.00;99.90;;;;;;5045854;28;20045;-63
2022/09/07 03:11:09;;;;;;;6.10;4.90;;;19.00;99.90;;;;;;5053449;28;20067;-63
2022/09/07 03:13:34;;;;;;;8.25;4.70;;;19.00;99.90;;;;;;5049754;28;20048;-63
2022/09/07 03:16:00;;;;;;;6.95;5.70;;;19.00;99.90;;;;;;5047342;28;20040;-63
2022/09/07 03:18:27;;;;;;;5.80;4.70;;;19.00;99.90;;;;;;5080542;28;20515;-62
2022/09/07 03:20:53;;;;;;;6.70;5.35;;;19.00;99.90;;;;;;5055905;28;20530;-63
2022/09/07 03:23:19;;;;;;;6.97;5.03;;;19.00;99.90;;;;;;5045866;28;20073;-63
2022/09/07 03:25:44;;;;;;;7.03;5.68;;;18.90;99.90;;;;;;5050530;28;20503;-63
2022/09/07 03:28:10;;;;;;;7.45;5.90;;;18.90;99.90;;;;;;5045982;28;20051;-63
2022/09/07 03:30:40;;;;;;;6.22;5.43;;;19.00;99.90;;;;;;5057161;28;20514;-63
2022/09/07 03:33:06;;;;;;;7.18;6.05;;;18.90;99.90;;;;;;5058026;28;20041;-63
2022/09/07 03:35:31;;;;;;;7.13;5.75;;;18.90;99.90;;;;;;5056649;28;20040;-63
2022/09/07 03:37:57;;;;;;;7.43;6.40;;;18.90;99.90;;;;;;5043456;28;20118;-63
2022/09/07 03:40:22;;;;;;;7.72;6.15;;;18.90;99.90;;;;;;5057033;28;20032;-63
2022/09/07 03:42:49;;;;;;;7.25;6.30;;;18.90;99.90;;;;;;5055203;28;20037;-63
2022/09/07 03:45:15;;;;;;;8.63;6.47;;;18.90;99.90;;;;;;5049455;28;20491;-62
2022/09/07 03:47:40;;;;;;;8.70;6.90;;;18.90;99.90;;;;;;5044976;28;20043;-63
2022/09/07 03:50:06;;;;;;;8.27;7.30;;;18.90;99.90;;;;;;5056726;28;20028;-63
2022/09/07 03:52:34;;;;;;;12.30;7.90;;;18.90;99.90;;;;;;5048687;28;20037;-63
2022/09/07 03:54:59;;;;;;;9.40;7.68;;;18.80;99.90;;;;;;5071863;28;20048;-63
2022/09/07 03:57:25;;;;;;;11.43;9.63;;;18.90;99.90;;;;;;5062096;28;20036;-63
2022/09/07 03:59:51;;;;;;;14.52;10.50;;;18.90;99.90;;;;;;5060678;28;20139;-63
2022/09/07 04:02:17;;;;;;;13.43;11.93;;;18.90;99.90;;;;;;5048260;28;20048;-63
2022/09/07 04:04:44;;;;;;;14.73;13.23;;;18.90;99.90;;;;;;5049342;28;20079;-63
2022/09/07 04:07:10;;;;;;;16.33;13.38;;;18.90;99.90;;;;;;5062346;28;20082;-63
2022/09/07 04:09:36;;;;;;;15.52;13.85;;;18.80;99.90;;;;;;5041929;28;20032;-63
2022/09/07 04:12:02;;;;;;;16.98;13.77;;;18.80;99.90;;;;;;5043947;28;20091;-63
2022/09/07 04:14:27;;;;;;;16.38;14.32;;;18.80;99.90;;;;;;5049077;28;20074;-63
2022/09/07 04:16:53;;;;;;;21.00;15.30;;;18.80;99.90;;;;;;5047380;28;20245;-62
2022/09/07 04:19:19;;;;;;;16.63;14.80;;;18.80;99.90;;;;;;5042858;28;20032;-63
2022/09/07 04:21:45;;;;;;;17.42;15.20;;;18.70;99.90;;;;;;5043387;28;20036;-63
2022/09/07 04:24:12;;;;;;;17.13;15.05;;;18.70;99.90;;;;;;5044495;28;20487;-63
2022/09/07 04:26:39;;;;;;;18.45;15.63;;;18.70;99.90;;;;;;5040474;28;20056;-63
2022/09/07 04:29:05;;;;;;;16.77;14.98;;;18.70;99.90;;;;;;5054000;28;20119;-63
2022/09/07 04:31:33;;;;;;;17.15;15.30;;;18.70;99.90;;;;;;5052701;28;20178;-63
2022/09/07 04:33:59;;;;;;;17.20;15.40;;;18.70;99.90;;;;;;5054604;28;20037;-63
2022/09/07 04:36:25;;;;;;;20.27;15.32;;;18.70;99.90;;;;;;5062055;28;20044;-63
2022/09/07 04:39:04;;;;;;;18.45;16.55;;;18.60;99.90;;;;;;5052394;28;20040;-63
2022/09/07 04:41:31;;;;;;;17.40;15.57;;;18.70;99.90;;;;;;5049534;28;20032;-63
2022/09/07 04:43:59;;;;;;;22.08;16.33;;;18.70;99.90;;;;;;5057072;28;20063;-63
2022/09/07 04:46:28;;;;;;;18.63;16.63;;;18.60;99.90;;;;;;5050485;28;20028;-63
2022/09/07 04:48:56;;;;;;;17.90;15.80;;;18.60;99.90;;;;;;5044173;28;20120;-63
2022/09/07 04:51:25;;;;;;;17.98;16.15;;;18.60;99.90;;;;;;5052163;28;21098;-63
2022/09/07 04:53:52;;;;;;;20.25;17.00;;;18.60;99.90;;;;;;5051518;28;20063;-63
2022/09/07 04:56:19;;;;;;;18.15;16.25;;;18.50;99.90;;;;;;5051218;28;20558;-63
2022/09/07 04:58:46;;;;;;;18.80;16.77;;;18.50;99.90;;;;;;5051836;28;20135;-63
2022/09/07 05:01:14;;;;;;;18.38;16.48;;;18.50;99.90;;;;;;5052500;28;20044;-62
2022/09/07 05:03:41;;;;;;;18.10;16.20;;;18.50;99.90;;;;;;5053481;28;20139;-62
2022/09/07 05:06:07;;;;;;;18.58;16.58;;;18.50;99.90;;;;;;5049805;28;20614;-63
2022/09/07 05:08:52;;;;;;;17.92;16.13;;;18.50;99.90;;;;;;5047229;28;20048;-62
2022/09/07 05:11:19;;;;;;;21.38;17.02;;;18.50;99.90;;;;;;5046718;28;20041;-63
2022/09/07 05:13:45;;;;;;;19.38;17.30;;;18.50;99.90;;;;;;5052776;28;20049;-63
2022/09/07 05:16:17;;;;;;;20.67;17.23;;;18.60;99.90;;;;;;5042938;28;20118;-62
2022/09/07 05:18:43;;;;;;;19.00;17.10;;;18.60;99.90;;;;;;5039271;28;20045;-63
2022/09/07 05:21:14;;;;;;;20.05;16.88;;;18.60;99.90;;;;;;5040834;28;20049;-63
2022/09/07 05:23:40;;;;;;;19.25;17.35;;;18.60;99.90;;;;;;5049673;28;20076;-63
2022/09/07 05:26:06;;;;;;;23.40;17.27;;;18.70;99.90;;;;;;5037198;28;20065;-63
2022/09/07 05:28:33;;;;;;;21.40;19.17;;;18.60;99.90;;;;;;5037277;28;20091;-63
2022/09/07 05:31:07;;;;;;;21.33;19.13;;;18.70;99.90;;;;;;5054228;28;20408;-63
2022/09/07 05:33:33;;;;;;;22.20;19.80;;;18.70;99.90;;;;;;5043291;28;20025;-62
2022/09/07 05:35:59;;;;;;;22.35;19.98;;;18.70;99.90;;;;;;5045078;28;20094;-63
2022/09/07 05:38:26;;;;;;;25.27;20.05;;;18.70;99.90;;;;;;5039893;28;20032;-64
2022/09/07 05:40:51;;;;;;;22.77;19.75;;;18.80;99.90;;;;;;5043711;28;20453;-63
2022/09/07 05:43:17;;;;;;;25.65;19.83;;;18.70;99.90;;;;;;5051116;28;20063;-62
2022/09/07 05:45:43;;;;;;;24.98;20.85;;;18.70;99.90;;;;;;5047010;28;20033;-62
2022/09/07 05:48:08;;;;;;;27.15;21.95;;;18.80;99.90;;;;;;5048123;28;20037;-63
2022/09/07 05:50:34;;;;;;;27.15;22.48;;;18.70;99.90;;;;;;5039647;28;20037;-63
2022/09/07 05:53:00;;;;;;;24.27;21.67;;;18.70;99.90;;;;;;5037987;28;20043;-63
2022/09/07 05:55:27;;;;;;;25.90;22.98;;;18.70;99.90;;;;;;5052297;28;20037;-62
2022/09/07 05:57:53;;;;;;;27.30;23.83;;;18.80;99.90;;;;;;5050605;28;20037;-63
2022/09/07 06:00:20;;;;;;;29.50;22.42;;;18.80;99.90;;;;;;5037741;28;20074;-62
2022/09/07 06:02:46;;;;;;;31.08;22.98;;;18.80;99.90;;;;;;5050937;28;20044;-63
2022/09/07 06:05:12;;;;;;;26.98;22.80;;;18.80;99.90;;;;;;5050644;28;20037;-62
2022/09/07 06:07:38;;;;;;;31.48;24.50;;;18.80;99.90;;;;;;5048655;28;20094;-62
2022/09/07 06:10:06;;;;;;;28.10;23.33;;;18.80;99.90;;;;;;5055513;28;20049;-63
2022/09/07 06:12:32;;;;;;;27.30;22.52;;;18.80;99.90;;;;;;5056350;28;20483;-62
2022/09/07 06:15:00;;;;;;;30.75;22.65;;;18.80;99.90;;;;;;5052327;28;20041;-62
2022/09/07 06:17:29;;;;;;;28.02;23.10;;;18.80;99.90;;;;;;5055249;28;20044;-62
2022/09/07 06:19:56;;;;;;;27.65;22.85;;;18.80;99.90;;;;;;5052475;28;20069;-64
2022/09/07 06:22:21;;;;;;;26.63;22.95;;;18.80;99.90;;;;;;5061449;28;20576;-63
2022/09/07 06:24:47;;;;;;;26.48;22.67;;;18.80;99.90;;;;;;5040492;28;20049;-64
2022/09/07 06:27:12;;;;;;;24.13;21.15;;;18.80;99.90;;;;;;5046638;28;20434;-63
2022/09/07 06:29:38;;;;;;;28.10;23.02;;;18.80;99.90;;;;;;5043850;28;20041;-63
2022/09/07 06:32:04;;;;;;;24.15;21.42;;;18.80;99.90;;;;;;5042284;28;20065;-63
2022/09/07 06:34:29;;;;;;;23.70;20.73;;;18.80;99.90;;;;;;5045659;28;20033;-62
2022/09/07 06:36:55;;;;;;;23.13;19.42;;;18.90;99.90;;;;;;5043415;28;20099;-63
2022/09/07 06:39:21;;;;;;;25.02;18.50;;;18.80;99.90;;;;;;5047055;28;20487;-63
2022/09/07 06:41:47;;;;;;;25.95;19.67;;;18.80;99.90;;;;;;5040011;28;20036;-63
2022/09/07 06:44:13;;;;;;;22.60;18.00;;;18.70;99.90;;;;;;5040022;28;20455;-62
2022/09/07 06:46:38;;;;;;;22.02;17.88;;;18.70;99.90;;;;;;5037441;28;20179;-62
2022/09/07 06:49:04;;;;;;;20.00;16.95;;;18.60;99.90;;;;;;5037762;28;20033;-62
2022/09/07 06:51:30;;;;;;;21.50;16.45;;;18.70;99.90;;;;;;5042967;28;20496;-63
2022/09/07 06:53:57;;;;;;;20.40;16.02;;;18.60;99.90;;;;;;5042281;28;20087;-63
2022/09/07 06:56:23;;;;;;;18.63;15.82;;;18.60;99.90;;;;;;5043345;28;20041;-61
2022/09/07 06:58:56;;;;;;;19.63;16.00;;;18.50;99.90;;;;;;5030069;28;20404;-62
2022/09/07 07:01:22;;;;;;;20.92;15.88;;;18.50;99.90;;;;;;5051545;28;21043;-61
2022/09/07 07:03:49;;;;;;;19.02;15.45;;;18.50;99.90;;;;;;5035425;28;20538;-61
2022/09/07 07:06:14;;;;;;;21.38;16.48;;;18.50;99.90;;;;;;5032185;28;20047;-63
2022/09/07 07:08:40;;;;;;;21.02;17.05;;;18.50;99.90;;;;;;5037783;28;20046;-62
2022/09/07 07:11:09;;;;;;;25.30;18.10;;;18.50;99.90;;;;;;5034229;28;21169;-61
2022/09/07 07:13:35;;;;;;;22.52;16.50;;;18.40;99.90;;;;;;5031308;28;20084;-62
2022/09/07 07:16:09;;;;;;;21.15;16.17;;;18.40;99.90;;;;;;5051611;28;20053;-62
2022/09/07 07:18:35;;;;;;;21.75;16.30;;;18.40;99.90;;;;;;5044613;28;20461;-63
2022/09/07 07:21:06;;;;;;;22.33;16.85;;;18.40;99.90;;;;;;5031357;28;20053;-62
2022/09/07 07:23:33;;;;;;;22.55;16.92;;;18.40;99.90;;;;;;5039021;28;20037;-63
2022/09/07 07:26:04;;;;;;;21.63;16.58;;;18.40;99.90;;;;;;5044410;28;20132;-63
2022/09/07 07:28:30;;;;;;;22.00;16.98;;;18.50;99.90;;;;;;5042008;28;20068;-63
2022/09/07 07:31:00;;;;;;;21.92;16.70;;;18.50;99.90;;;;;;5031603;28;20057;-63
2022/09/07 07:33:34;;;;;;;19.50;15.45;;;18.50;99.90;;;;;;5034596;28;20045;-63
2022/09/07 07:36:07;;;;;;;20.15;15.73;;;18.50;99.90;;;;;;5056647;28;20041;-63
2022/09/07 07:38:32;;;;;;;22.10;16.55;;;18.50;99.90;;;;;;5040372;28;20036;-63
2022/09/07 07:40:58;;;;;;;21.23;15.35;;;18.50;99.90;;;;;;5035309;28;20038;-63
2022/09/07 07:43:24;;;;;;;19.92;16.20;;;18.50;99.90;;;;;;5038009;28;20466;-63
2022/09/07 07:45:49;;;;;;;21.48;15.02;;;18.60;99.90;;;;;;5043433;28;20040;-62
2022/09/07 07:48:15;;;;;;;17.88;14.32;;;18.60;99.90;;;;;;5054437;28;20403;-63
2022/09/07 07:50:41;;;;;;;21.55;15.93;;;18.60;99.90;;;;;;5037437;28;20045;-63
2022/09/07 07:53:06;;;;;;;20.70;16.00;;;18.70;99.90;;;;;;5045620;28;20040;-63
2022/09/07 07:55:32;;;;;;;18.73;15.00;;;18.70;99.90;;;;;;5045048;28;20041;-63
2022/09/07 07:57:57;;;;;;;19.33;15.43;;;18.80;99.90;;;;;;5053283;28;20045;-63
2022/09/07 08:00:23;;;;;;;21.70;15.77;;;18.80;99.90;;;;;;5045132;28;20127;-63
2022/09/07 08:02:49;;;;;;;18.45;15.20;;;18.90;99.90;;;;;;5040185;28;20033;-63
2022/09/07 08:05:15;;;;;;;18.52;15.18;;;18.90;99.90;;;;;;5053498;28;20040;-63
2022/09/07 08:07:41;;;;;;;19.35;15.02;;;19.00;99.90;;;;;;5053947;28;20533;-63
2022/09/07 08:10:09;;;;;;;18.88;15.15;;;19.00;99.90;;;;;;5046819;28;20029;-63
2022/09/07 08:12:34;;;;;;;17.80;13.95;;;19.10;99.90;;;;;;5051559;28;20117;-63
2022/09/07 08:15:00;;;;;;;18.25;14.98;;;19.20;99.90;;;;;;5046778;28;20075;-63
2022/09/07 08:17:26;;;;;;;18.63;15.52;;;19.20;99.90;;;;;;5048124;28;20063;-63
2022/09/07 08:19:52;;;;;;;17.25;14.63;;;19.20;99.90;;;;;;5047578;28;20495;-63
2022/09/07 08:22:17;;;;;;;18.75;14.80;;;19.30;99.90;;;;;;5054834;28;20051;-63
2022/09/07 08:24:43;;;;;;;18.45;14.40;;;19.30;99.90;;;;;;5046520;28;20044;-63
2022/09/07 08:27:09;;;;;;;21.90;15.77;;;19.30;99.90;;;;;;5055849;28;20509;-63
2022/09/07 08:29:34;;;;;;;18.00;14.40;;;19.30;99.90;;;;;;5059269;28;20659;-63
2022/09/07 08:32:00;;;;;;;19.65;15.40;;;19.40;99.90;;;;;;5045798;28;20039;-63
2022/09/07 08:34:26;;;;;;;19.52;14.40;;;19.40;99.90;;;;;;5050415;28;20133;-63
2022/09/07 08:36:51;;;;;;;17.15;14.23;;;19.40;99.90;;;;;;5045836;28;20059;-63
2022/09/07 08:39:17;;;;;;;16.33;13.13;;;19.50;99.90;;;;;;5055187;28;20144;-63
2022/09/07 08:41:51;;;;;;;16.77;12.52;;;19.60;99.90;;;;;;5059060;28;20032;-63
2022/09/07 08:44:34;;;;;;;16.35;12.90;;;19.70;99.90;;;;;;5060160;28;20055;-63
2022/09/07 08:47:36;;;;;;;18.27;13.68;;;19.70;99.90;;;;;;5046310;28;20080;-63
2022/09/07 08:50:05;;;;;;;15.80;12.27;;;19.70;99.90;;;;;;5041040;28;20051;-63
2022/09/07 08:52:49;;;;;;;15.45;11.98;;;19.80;99.90;;;;;;5049537;28;20036;-63
2022/09/07 08:55:26;;;;;;;14.88;12.02;;;19.80;99.90;;;;;;5044712;28;20046;-63
2022/09/07 08:58:16;;;;;;;14.95;12.45;;;19.90;99.90;;;;;;5036738;28;20040;-63
2022/09/07 09:00:42;;;;;;;14.20;12.18;;;19.90;99.90;;;;;;5033377;28;20055;-63
2022/09/07 09:03:29;;;;;;;14.70;11.93;;;20.00;99.90;;;;;;5048602;28;20045;-63
2022/09/07 09:06:06;;;;;;;14.93;11.50;;;20.00;99.90;;;;;;5045862;28;20376;-63
2022/09/07 09:08:43;;;;;;;12.55;10.98;;;20.10;99.90;;;;;;5048372;28;20036;-63
2022/09/07 09:11:15;;;;;;;13.82;11.30;;;20.10;99.90;;;;;;5053442;28;20037;-63
2022/09/07 09:13:40;;;;;;;;;;;20.10;99.90;;;;;;5048831;28;20028;-63
2022/09/07 09:16:41;;;;;;;13.88;10.88;;;20.10;99.90;;;;;;5044729;28;19916;-63
2022/09/07 09:19:44;;;;;;;12.57;10.48;;;20.10;99.90;;;;;;4997566;28;20061;-63
2022/09/07 09:22:13;;;;;;;14.60;10.35;;;20.20;99.90;;;;;;5040270;28;20043;-63
2022/09/07 09:24:45;;;;;;;13.02;10.50;;;20.30;99.90;;;;;;5043285;28;20045;-63
2022/09/07 09:27:11;;;;;;;10.80;9.05;;;20.30;99.90;;;;;;5039303;28;20049;-63
2022/09/07 09:29:37;;;;;;;11.57;9.20;;;20.30;99.90;;;;;;5036945;28;20037;-63
2022/09/07 09:32:34;;;;;;;11.55;9.30;;;20.40;99.90;;;;;;5043212;28;20041;-63
2022/09/07 09:35:22;;;;;;;12.27;8.70;;;20.40;99.90;;;;;;5048610;28;20045;-63
2022/09/07 09:37:47;;;;;;;9.43;7.93;;;20.40;99.90;;;;;;5048720;28;20099;-63
2022/09/07 09:40:24;;;;;;;11.48;8.45;;;20.40;99.90;;;;;;5064667;28;20037;-63
2022/09/07 09:43:02;;;;;;;11.18;8.48;;;20.40;99.90;;;;;;5057303;28;20033;-63
2022/09/07 09:45:50;;;;;;;10.60;7.85;;;20.50;99.90;;;;;;5045077;28;20033;-63
2022/09/07 09:48:27;;;;;;;10.80;8.32;;;20.50;99.90;;;;;;5043530;28;20534;-63
2022/09/07 09:50:55;;;;;;;10.45;8.30;;;20.60;99.90;;;;;;5058212;28;20483;-64
2022/09/07 09:53:25;;;;;;;10.43;7.82;;;20.60;99.90;;;;;;5052276;28;20502;-63
2022/09/07 09:55:52;;;;;;;12.15;7.70;;;20.60;99.90;;;;;;5048923;28;20051;-63
2022/09/07 09:58:26;;;;;;;9.38;7.20;;;20.60;99.90;;;;;;5047437;28;20115;-63
2022/09/07 10:01:00;;;;;;;8.85;6.80;;;20.50;99.90;;;;;;5052011;28;20037;-63
2022/09/07 10:03:27;;;;;;;10.45;7.00;;;20.60;99.90;;;;;;5048865;28;20040;-63
2022/09/07 10:05:53;;;;;;;7.97;6.43;;;20.60;99.90;;;;;;5056216;28;20047;-63
2022/09/07 10:08:23;;;;;;;10.73;6.95;;;20.70;99.90;;;;;;5047653;28;20376;-64
2022/09/07 10:10:55;;;;;;;9.23;6.70;;;20.80;99.90;;;;;;5049515;28;20514;-64
2022/09/07 10:13:26;;;;;;;10.73;6.53;;;20.80;99.90;;;;;;5056503;28;20575;-63
2022/09/07 10:15:54;;;;;;;9.70;6.32;;;20.90;99.90;;;;;;5048941;28;20045;-64
2022/09/07 10:18:39;;;;;;;8.20;6.10;;;20.80;99.90;;;;;;5044533;28;20509;-64
2022/09/07 10:21:22;;;;;;;7.28;5.63;;;20.80;99.90;;;;;;5057678;28;20127;-64
2022/09/07 10:24:19;;;;;;;7.57;5.85;;;20.90;99.90;;;;;;5046348;28;20049;-64
2022/09/07 10:26:46;;;;;;;7.50;5.55;;;20.90;99.90;;;;;;5047368;28;20066;-64
2022/09/07 10:29:18;;;;;;;8.32;6.50;;;21.00;99.90;;;;;;5050911;28;20045;-63
2022/09/07 10:32:25;;;;;;;8.95;6.70;;;21.00;99.90;;;;;;5046977;28;20083;-64
2022/09/07 10:35:20;;;;;;;8.13;6.03;;;21.10;99.90;;;;;;4984768;28;20039;-64
2022/09/07 10:37:52;;;;;;;8.80;5.25;;;21.40;99.90;;;;;;5045684;28;20045;-64
2022/09/07 10:40:23;;;;;;;11.15;6.15;;;21.50;99.90;;;;;;5041438;28;20037;-64
2022/09/07 10:43:05;;;;;;;11.23;6.45;;;21.50;99.90;;;;;;5044782;28;20037;-63
2022/09/07 10:45:50;;;;;;;9.65;5.75;;;21.60;99.90;;;;;;5037553;28;20033;-64
2022/09/07 10:48:19;;;;;;;6.60;5.03;;;21.60;99.90;;;;;;5044384;28;20519;-64
2022/09/07 10:51:01;;;;;;;8.10;5.25;;;21.70;99.90;;;;;;5066260;28;20041;-64
2022/09/07 10:53:46;;;;;;;6.93;5.40;;;21.80;99.90;;;;;;5045399;28;20052;-64
2022/09/07 10:56:23;;;;;;;7.10;5.40;;;21.80;99.90;;;;;;5045974;28;20098;-64
2022/09/07 10:59:31;;;;;;;6.70;5.05;;;21.80;99.90;;;;;;5036428;28;20052;-64
2022/09/07 11:02:20;;;;;;;7.53;4.85;;;21.80;99.90;;;;;;5033915;28;20053;-64
2022/09/07 11:05:03;;;;;;;5.80;4.65;;;21.80;99.90;;;;;;5042149;28;20082;-64
2022/09/07 11:08:00;;;;;;;7.03;5.35;;;22.10;99.90;;;;;;5042771;28;20067;-64
2022/09/07 11:10:42;;;;;;;6.60;5.03;;;22.20;99.90;;;;;;5047526;28;20045;-64
2022/09/07 11:13:14;;;;;;;6.70;4.03;;;22.30;99.90;;;;;;5042169;28;20045;-64
2022/09/07 11:15:58;;;;;;;9.02;4.70;;;22.30;99.90;;;;;;5034473;28;20041;-64
2022/09/07 11:18:38;;;;;;;6.15;4.38;;;22.30;99.90;;;;;;5065055;28;20044;-64
2022/09/07 11:21:12;;;;;;;5.15;4.13;;;22.20;99.90;;;;;;5041347;28;20125;-64
2022/09/07 11:24:11;;;;;;;5.45;4.05;;;22.20;99.90;;;;;;5047700;28;20036;-64
2022/09/07 11:26:55;;;;;;;5.40;4.30;;;22.10;99.90;;;;;;5054580;28;20051;-64
2022/09/07 11:29:24;;;;;;;6.05;4.20;;;22.10;99.90;;;;;;5057167;28;20498;-64
2022/09/07 11:31:54;;;;;;;6.93;4.00;;;22.00;99.90;;;;;;5054224;28;20092;-64
2022/09/07 11:34:30;;;;;;;5.00;3.75;;;22.00;99.90;;;;;;5047041;28;20044;-64
2022/09/07 11:37:17;;;;;;;7.32;4.20;;;22.00;99.90;;;;;;5061848;28;20041;-64
2022/09/07 11:39:47;;;;;;;5.95;4.13;;;22.00;99.90;;;;;;5050722;28;20123;-64
2022/09/07 11:42:30;;;;;;;5.57;4.20;;;22.00;99.90;;;;;;5049897;28;20124;-64
2022/09/07 11:45:12;;;;;;;5.47;3.75;;;22.20;99.90;;;;;;5042995;28;20037;-64
2022/09/07 11:47:47;;;;;;;5.53;3.10;;;22.30;99.90;;;;;;5046495;28;20045;-64
2022/09/07 11:50:20;;;;;;;5.15;3.90;;;22.60;99.90;;;;;;5046632;28;20044;-64
2022/09/07 11:53:06;;;;;;;7.05;3.50;;;22.90;99.90;;;;;;5048004;28;20107;-64
2022/09/07 11:55:37;;;;;;;4.40;3.08;;;23.30;99.90;;;;;;5042758;28;20048;-63
2022/09/07 11:58:40;;;;;;;5.30;2.90;;;23.60;99.90;;;;;;5047148;28;20045;-64
2022/09/07 12:01:14;;;;;;;5.53;3.22;;;24.00;99.90;;;;;;5048053;28;20048;-64
2022/09/07 12:04:17;;;;;;;5.60;3.30;;;24.20;99.90;;;;;;5038681;28;20032;-64
2022/09/07 12:07:11;;;;;;;3.47;2.92;;;24.50;99.90;;;;;;5036927;28;20041;-64
2022/09/07 12:09:58;;;;;;;5.57;2.92;;;24.70;99.90;;;;;;5054948;28;20041;-64
2022/09/07 12:12:55;;;;;;;5.85;3.45;;;24.80;99.90;;;;;;5051676;28;20033;-64
2022/09/07 12:15:33;;;;;;;3.33;2.90;;;24.60;99.90;;;;;;5049435;28;20045;-64
2022/09/07 12:18:21;;;;;;;4.00;3.00;;;24.40;99.90;;;;;;5040736;28;20389;-64
2022/09/07 12:20:47;;;;;;;5.93;3.20;;;24.30;99.90;;;;;;5011558;28;20578;-64
2022/09/07 12:23:17;;;;;;;4.70;3.40;;;24.10;99.90;;;;;;5047842;28;20068;-64
2022/09/07 12:25:45;;;;;;;5.88;3.38;;;24.00;99.90;;;;;;5047312;28;20038;-64
2022/09/07 12:28:16;;;;;;;3.55;2.80;;;24.00;99.90;;;;;;5044494;28;20048;-64
2022/09/07 12:31:03;;;;;;;5.47;2.87;;;24.20;99.90;;;;;;5048394;28;20090;-64
2022/09/07 12:33:35;;;;;;;5.80;2.90;;;24.40;99.90;;;;;;5045575;28;20037;-64
2022/09/07 12:36:10;;;;;;;3.67;3.10;;;24.50;99.90;;;;;;5042751;28;20080;-64
2022/09/07 12:39:04;;;;;;;3.88;2.83;;;24.50;99.90;;;;;;5044418;28;20098;-64
2022/09/07 12:41:45;;;;;;;4.55;3.08;;;24.50;99.90;;;;;;5049404;28;20389;-64
2022/09/07 12:44:17;;;;;;;4.87;2.87;;;24.60;99.90;;;;;;5052347;28;20087;-64
2022/09/07 12:46:45;;;;;;;5.25;3.15;;;24.60;99.90;;;;;;5068989;28;20044;-64
2022/09/07 12:49:32;;;;;;;5.78;3.25;;;24.60;99.90;;;;;;5057997;28;20045;-64
2022/09/07 12:52:25;;;;;;;4.57;3.33;;;24.50;99.90;;;;;;5048408;28;20561;-64
2022/09/07 12:55:17;;;;;;;4.45;3.05;;;24.40;99.70;;;;;;5051133;28;20048;-64
2022/09/07 12:57:47;;;;;;;4.07;2.80;;;24.30;99.80;;;;;;5052311;28;20041;-64
2022/09/07 13:00:34;;;;;;;4.45;3.05;;;24.20;99.90;;;;;;5049222;28;20049;-65
2022/09/07 13:03:26;;;;;;;4.50;3.13;;;24.10;99.90;;;;;;5047619;28;20395;-64